sensor_id;sensor_type;location;lat;lon;timestamp;pressure;altitude;pressure_sealevel;temperature;humidity
39341;BME280;25059;52.132;21.062;2022-09-13T00:01:52;100195.09;;;7.61;100.00
39341;BME280;25059;52.132;21.062;2022-09-13T00:04:38;100214.41;;;7.57;100.00
39341;BME280;25059;52.132;21.062;2022-09-13T00:07:22;100221.34;;;7.58;100.00
39341;BME280;25059;52.132;21.062;2022-09-13T00:13:43;100219.53;;;7.60;100.00
39341;BME280;25059;52.132;21.062;2022-09-13T00:16:28;100216.78;;;7.64;100.00
39341;BME280;25059;52.132;21.062;2022-09-13T00:19:12;100217.81;;;7.59;100.00
39341;BME280;25059;52.132;21.062;2022-09-13T00:21:57;100230.44;;;7.44;100.00
39341;BME280;25059;52.132;21.062;2022-09-13T00:24:42;100222.69;;;7.41;100.00
39341;BME280;25059;52.132;21.062;2022-09-13T00:27:27;100216.47;;;7.45;100.00
39341;BME280;25059;52.132;21.062;2022-09-13T00:30:12;100216.41;;;7.47;100.00
39341;BME280;25059;52.132;21.062;2022-09-13T00:32:57;100223.31;;;7.50;100.00
39341;BME280;25059;52.132;21.062;2022-09-13T00:35:42;100211.91;;;7.52;100.00
39341;BME280;25059;52.132;21.062;2022-09-13T00:38:27;100217.06;;;7.55;100.00
39341;BME280;25059;52.132;21.062;2022-09-13T00:41:15;100221.78;;;7.42;100.00
39341;BME280;25059;52.132;21.062;2022-09-13T00:44:01;100215.25;;;7.26;100.00
39341;BME280;25059;52.132;21.062;2022-09-13T00:46:48;100220.50;;;7.26;100.00
39341;BME280;25059;52.132;21.062;2022-09-13T00:49:37;100211.91;;;7.21;100.00
39341;BME280;25059;52.132;21.062;2022-09-13T00:52:24;100210.25;;;7.19;100.00
39341;BME280;25059;52.132;21.062;2022-09-13T00:55:17;100212.84;;;7.19;100.00
39341;BME280;25059;52.132;21.062;2022-09-13T00:58:08;100219.16;;;7.11;100.00
39341;BME280;25059;52.132;21.062;2022-09-13T01:00:55;100224.91;;;7.24;100.00
39341;BME280;25059;52.132;21.062;2022-09-13T01:03:43;100224.00;;;7.25;100.00
39341;BME280;25059;52.132;21.062;2022-09-13T01:06:30;100227.41;;;7.29;100.00
39341;BME280;25059;52.132;21.062;2022-09-13T01:09:16;100219.03;;;7.47;100.00
39341;BME280;25059;52.132;21.062;2022-09-13T01:12:08;100222.97;;;7.62;100.00
39341;BME280;25059;52.132;21.062;2022-09-13T01:14:59;100225.09;;;7.78;100.00
39341;BME280;25059;52.132;21.062;2022-09-13T01:17:45;100223.16;;;7.85;100.00
39341;BME280;25059;52.132;21.062;2022-09-13T01:24:08;100210.56;;;7.68;100.00
39341;BME280;25059;52.132;21.062;2022-09-13T01:30:20;100203.56;;;7.69;100.00
39341;BME280;25059;52.132;21.062;2022-09-13T01:33:30;100203.47;;;7.72;100.00
39341;BME280;25059;52.132;21.062;2022-09-13T01:45:52;100215.19;;;7.29;100.00
39341;BME280;25059;52.132;21.062;2022-09-13T01:55:14;100203.00;;;7.28;100.00
39341;BME280;25059;52.132;21.062;2022-09-13T02:01:12;100198.88;;;7.20;100.00
39341;BME280;25059;52.132;21.062;2022-09-13T02:04:06;100200.47;;;7.25;100.00
39341;BME280;25059;52.132;21.062;2022-09-13T02:07:09;100206.09;;;7.11;100.00
39341;BME280;25059;52.132;21.062;2022-09-13T02:10:02;100200.16;;;7.05;100.00
39341;BME280;25059;52.132;21.062;2022-09-13T02:12:49;100189.88;;;7.30;100.00
39341;BME280;25059;52.132;21.062;2022-09-13T02:15:40;100188.69;;;7.41;100.00
39341;BME280;25059;52.132;21.062;2022-09-13T02:18:34;100189.38;;;7.48;100.00
39341;BME280;25059;52.132;21.062;2022-09-13T02:21:25;100193.75;;;7.48;100.00
39341;BME280;25059;52.132;21.062;2022-09-13T02:24:17;100187.16;;;7.34;100.00
39341;BME280;25059;52.132;21.062;2022-09-13T02:27:07;100188.16;;;7.29;100.00
39341;BME280;25059;52.132;21.062;2022-09-13T02:29:57;100180.28;;;7.30;100.00
39341;BME280;25059;52.132;21.062;2022-09-13T02:32:50;100179.81;;;7.16;100.00
39341;BME280;25059;52.132;21.062;2022-09-13T02:35:41;100175.00;;;7.01;100.00
39341;BME280;25059;52.132;21.062;2022-09-13T02:38:31;100169.25;;;6.88;100.00
39341;BME280;25059;52.132;21.062;2022-09-13T02:44:13;100167.50;;;6.89;100.00
39341;BME280;25059;52.132;21.062;2022-09-13T02:47:10;100170.69;;;7.00;100.00
39341;BME280;25059;52.132;21.062;2022-09-13T02:58:36;100160.97;;;6.38;100.00
39341;BME280;25059;52.132;21.062;2022-09-13T03:01:26;100161.75;;;6.42;100.00
39341;BME280;25059;52.132;21.062;2022-09-13T03:04:11;100157.28;;;6.47;100.00
39341;BME280;25059;52.132;21.062;2022-09-13T03:06:55;100152.22;;;6.41;100.00
39341;BME280;25059;52.132;21.062;2022-09-13T03:09:45;100146.16;;;6.39;100.00
39341;BME280;25059;52.132;21.062;2022-09-13T03:24:08;100142.53;;;6.44;100.00
39341;BME280;25059;52.132;21.062;2022-09-13T03:27:09;100149.53;;;6.44;100.00
39341;BME280;25059;52.132;21.062;2022-09-13T03:30:05;100147.09;;;6.36;100.00
39341;BME280;25059;52.132;21.062;2022-09-13T03:32:51;100139.63;;;6.23;100.00
39341;BME280;25059;52.132;21.062;2022-09-13T03:35:49;100130.13;;;6.19;100.00
39341;BME280;25059;52.132;21.062;2022-09-13T03:38:38;100133.69;;;6.16;100.00
39341;BME280;25059;52.132;21.062;2022-09-13T03:41:31;100130.56;;;6.02;100.00
39341;BME280;25059;52.132;21.062;2022-09-13T03:44:20;100136.66;;;6.01;100.00
39341;BME280;25059;52.132;21.062;2022-09-13T03:47:07;100128.94;;;5.96;100.00
39341;BME280;25059;52.132;21.062;2022-09-13T03:49:52;100137.00;;;5.86;100.00
39341;BME280;25059;52.132;21.062;2022-09-13T03:52:38;100128.38;;;5.82;100.00
39341;BME280;25059;52.132;21.062;2022-09-13T03:55:23;100123.22;;;5.79;100.00
39341;BME280;25059;52.132;21.062;2022-09-13T03:58:13;100125.69;;;5.85;100.00
39341;BME280;25059;52.132;21.062;2022-09-13T04:00:59;100120.63;;;5.79;100.00
39341;BME280;25059;52.132;21.062;2022-09-13T04:03:43;100123.41;;;5.71;100.00
39341;BME280;25059;52.132;21.062;2022-09-13T04:06:28;100127.97;;;5.62;100.00
39341;BME280;25059;52.132;21.062;2022-09-13T04:09:14;100118.50;;;5.58;100.00
39341;BME280;25059;52.132;21.062;2022-09-13T04:11:59;100119.50;;;5.52;100.00
39341;BME280;25059;52.132;21.062;2022-09-13T04:14:44;100112.56;;;5.51;100.00
39341;BME280;25059;52.132;21.062;2022-09-13T04:17:29;100115.06;;;5.56;100.00
39341;BME280;25059;52.132;21.062;2022-09-13T04:23:40;100119.28;;;5.61;100.00
39341;BME280;25059;52.132;21.062;2022-09-13T04:26:24;100125.34;;;5.63;100.00
39341;BME280;25059;52.132;21.062;2022-09-13T04:29:09;100114.19;;;5.57;100.00
39341;BME280;25059;52.132;21.062;2022-09-13T04:31:54;100126.06;;;5.70;100.00
39341;BME280;25059;52.132;21.062;2022-09-13T04:34:39;100118.19;;;5.71;100.00
39341;BME280;25059;52.132;21.062;2022-09-13T04:37:23;100121.59;;;5.75;100.00
39341;BME280;25059;52.132;21.062;2022-09-13T04:40:08;100123.38;;;5.73;100.00
39341;BME280;25059;52.132;21.062;2022-09-13T04:42:53;100120.50;;;5.83;100.00
39341;BME280;25059;52.132;21.062;2022-09-13T04:45:37;100119.41;;;5.95;100.00
39341;BME280;25059;52.132;21.062;2022-09-13T04:48:23;100126.19;;;6.02;100.00
39341;BME280;25059;52.132;21.062;2022-09-13T04:54:35;100120.47;;;6.22;100.00
39341;BME280;25059;52.132;21.062;2022-09-13T04:57:19;100120.16;;;6.34;100.00
39341;BME280;25059;52.132;21.062;2022-09-13T05:00:04;100119.06;;;6.43;100.00
39341;BME280;25059;52.132;21.062;2022-09-13T05:02:54;100128.16;;;6.62;100.00
39341;BME280;25059;52.132;21.062;2022-09-13T05:05:39;100129.63;;;6.72;100.00
39341;BME280;25059;52.132;21.062;2022-09-13T05:08:24;100122.38;;;6.82;100.00
39341;BME280;25059;52.132;21.062;2022-09-13T05:11:09;100123.81;;;6.94;100.00
39341;BME280;25059;52.132;21.062;2022-09-13T05:13:56;100124.19;;;7.11;100.00
39341;BME280;25059;52.132;21.062;2022-09-13T05:16:41;100118.69;;;7.20;100.00
39341;BME280;25059;52.132;21.062;2022-09-13T05:19:26;100121.91;;;7.30;100.00
39341;BME280;25059;52.132;21.062;2022-09-13T05:22:14;100117.97;;;7.44;100.00
39341;BME280;25059;52.132;21.062;2022-09-13T05:24:59;100115.91;;;7.56;100.00
39341;BME280;25059;52.132;21.062;2022-09-13T05:27:44;100109.56;;;7.63;100.00
39341;BME280;25059;52.132;21.062;2022-09-13T05:30:29;100110.09;;;7.74;100.00
39341;BME280;25059;52.132;21.062;2022-09-13T05:33:13;100117.56;;;7.86;100.00
39341;BME280;25059;52.132;21.062;2022-09-13T05:35:58;100119.13;;;7.92;100.00
39341;BME280;25059;52.132;21.062;2022-09-13T05:38:43;100116.63;;;8.15;100.00
39341;BME280;25059;52.132;21.062;2022-09-13T05:41:27;100113.56;;;8.29;100.00
39341;BME280;25059;52.132;21.062;2022-09-13T05:44:12;100119.22;;;8.43;100.00
39341;BME280;25059;52.132;21.062;2022-09-13T05:46:57;100118.00;;;8.53;100.00
39341;BME280;25059;52.132;21.062;2022-09-13T05:49:43;100110.63;;;8.64;100.00
39341;BME280;25059;52.132;21.062;2022-09-13T05:52:27;100113.59;;;8.79;100.00
39341;BME280;25059;52.132;21.062;2022-09-13T05:55:12;100107.34;;;8.83;100.00
39341;BME280;25059;52.132;21.062;2022-09-13T05:57:56;100108.38;;;9.02;100.00
39341;BME280;25059;52.132;21.062;2022-09-13T06:00:41;100100.03;;;9.16;100.00
39341;BME280;25059;52.132;21.062;2022-09-13T06:03:26;100094.66;;;9.19;100.00
39341;BME280;25059;52.132;21.062;2022-09-13T06:06:11;100098.59;;;9.30;100.00
39341;BME280;25059;52.132;21.062;2022-09-13T06:09:04;100092.09;;;9.41;100.00
39341;BME280;25059;52.132;21.062;2022-09-13T06:11:57;100075.84;;;9.53;100.00
39341;BME280;25059;52.132;21.062;2022-09-13T06:14:58;100078.31;;;9.57;100.00
39341;BME280;25059;52.132;21.062;2022-09-13T06:18:10;100085.88;;;9.65;100.00
39341;BME280;25059;52.132;21.062;2022-09-13T06:21:21;100087.16;;;9.77;100.00
39341;BME280;25059;52.132;21.062;2022-09-13T06:24:08;100078.97;;;9.84;100.00
39341;BME280;25059;52.132;21.062;2022-09-13T06:26:52;100080.06;;;10.00;100.00
39341;BME280;25059;52.132;21.062;2022-09-13T06:29:40;100086.59;;;10.12;100.00
39341;BME280;25059;52.132;21.062;2022-09-13T06:32:25;100088.94;;;10.20;100.00
39341;BME280;25059;52.132;21.062;2022-09-13T06:35:10;100089.66;;;10.23;100.00
39341;BME280;25059;52.132;21.062;2022-09-13T06:37:58;100081.19;;;10.37;100.00
39341;BME280;25059;52.132;21.062;2022-09-13T06:40:45;100081.13;;;10.39;100.00
39341;BME280;25059;52.132;21.062;2022-09-13T06:43:34;100079.09;;;10.45;100.00
39341;BME280;25059;52.132;21.062;2022-09-13T06:46:19;100082.78;;;10.61;100.00
39341;BME280;25059;52.132;21.062;2022-09-13T06:49:06;100082.94;;;10.77;100.00
39341;BME280;25059;52.132;21.062;2022-09-13T06:51:52;100091.09;;;10.91;100.00
39341;BME280;25059;52.132;21.062;2022-09-13T06:54:40;100078.00;;;10.90;100.00
39341;BME280;25059;52.132;21.062;2022-09-13T06:57:29;100079.44;;;10.97;100.00
39341;BME280;25059;52.132;21.062;2022-09-13T07:00:14;100072.78;;;11.09;100.00
39341;BME280;25059;52.132;21.062;2022-09-13T07:03:08;100072.91;;;11.24;100.00
39341;BME280;25059;52.132;21.062;2022-09-13T07:06:00;100060.91;;;11.38;100.00
39341;BME280;25059;52.132;21.062;2022-09-13T07:09:19;100074.03;;;11.56;100.00
39341;BME280;25059;52.132;21.062;2022-09-13T07:20:12;100063.69;;;11.89;100.00
39341;BME280;25059;52.132;21.062;2022-09-13T07:23:00;100063.09;;;12.02;100.00
39341;BME280;25059;52.132;21.062;2022-09-13T07:25:59;100061.25;;;12.21;100.00
39341;BME280;25059;52.132;21.062;2022-09-13T07:32:33;100060.69;;;12.49;100.00
39341;BME280;25059;52.132;21.062;2022-09-13T07:36:21;100050.06;;;12.68;100.00
39341;BME280;25059;52.132;21.062;2022-09-13T07:39:22;100052.50;;;12.88;100.00
39341;BME280;25059;52.132;21.062;2022-09-13T07:42:26;100052.34;;;13.07;100.00
39341;BME280;25059;52.132;21.062;2022-09-13T07:45:35;100059.56;;;13.20;100.00
39341;BME280;25059;52.132;21.062;2022-09-13T07:48:25;100048.94;;;13.38;100.00
39341;BME280;25059;52.132;21.062;2022-09-13T07:51:18;100042.53;;;13.57;100.00
39341;BME280;25059;52.132;21.062;2022-09-13T07:54:18;100052.47;;;13.84;100.00
39341;BME280;25059;52.132;21.062;2022-09-13T08:14:06;100036.56;;;15.16;100.00
39341;BME280;25059;52.132;21.062;2022-09-13T08:21:56;100022.47;;;15.71;100.00
39341;BME280;25059;52.132;21.062;2022-09-13T08:24:41;100018.63;;;16.02;100.00
39341;BME280;25059;52.132;21.062;2022-09-13T08:27:32;100013.72;;;16.36;100.00
39341;BME280;25059;52.132;21.062;2022-09-13T08:30:41;100004.28;;;16.44;100.00
39341;BME280;25059;52.132;21.062;2022-09-13T08:34:55;100005.66;;;16.63;100.00
39341;BME280;25059;52.132;21.062;2022-09-13T08:46:41;99994.59;;;17.43;100.00
39341;BME280;25059;52.132;21.062;2022-09-13T08:55:01;99990.16;;;18.38;94.63
39341;BME280;25059;52.132;21.062;2022-09-13T08:59:08;99998.69;;;18.77;88.32
39341;BME280;25059;52.132;21.062;2022-09-13T09:18:31;99977.94;;;19.79;79.95
39341;BME280;25059;52.132;21.062;2022-09-13T09:21:44;99980.47;;;20.13;79.80
39341;BME280;25059;52.132;21.062;2022-09-13T09:24:49;99972.38;;;20.03;78.35
39341;BME280;25059;52.132;21.062;2022-09-13T09:27:43;99981.75;;;19.97;76.85
39341;BME280;25059;52.132;21.062;2022-09-13T09:30:48;99964.81;;;20.29;79.16
39341;BME280;25059;52.132;21.062;2022-09-13T09:34:57;99960.75;;;20.76;75.73
39341;BME280;25059;52.132;21.062;2022-09-13T09:37:39;99960.41;;;20.60;73.79
39341;BME280;25059;52.132;21.062;2022-09-13T09:40:54;99953.88;;;20.83;74.67
39341;BME280;25059;52.132;21.062;2022-09-13T09:57:49;99933.13;;;21.06;71.48
39341;BME280;25059;52.132;21.062;2022-09-13T10:01:05;99932.13;;;21.76;70.65
39341;BME280;25059;52.132;21.062;2022-09-13T10:10:22;99908.78;;;22.81;63.44
39341;BME280;25059;52.132;21.062;2022-09-13T10:13:31;99904.59;;;24.21;54.33
39341;BME280;25059;52.132;21.062;2022-09-13T10:16:26;99898.31;;;24.98;51.03
39341;BME280;25059;52.132;21.062;2022-09-13T10:19:36;99904.22;;;25.10;48.24
39341;BME280;25059;52.132;21.062;2022-09-13T10:26:24;99899.38;;;24.79;48.17
39341;BME280;25059;52.132;21.062;2022-09-13T10:29:23;99901.56;;;23.55;49.86
39341;BME280;25059;52.132;21.062;2022-09-13T10:32:20;99883.88;;;22.24;53.12
39341;BME280;25059;52.132;21.062;2022-09-13T10:35:35;99889.69;;;22.01;55.56
39341;BME280;25059;52.132;21.062;2022-09-13T10:38:48;99905.38;;;20.88;57.74
39341;BME280;25059;52.132;21.062;2022-09-13T10:43:22;99891.25;;;20.15;60.86
39341;BME280;25059;52.132;21.062;2022-09-13T10:47:57;99883.63;;;20.62;61.20
39341;BME280;25059;52.132;21.062;2022-09-13T10:51:19;99882.69;;;20.73;60.49
39341;BME280;25059;52.132;21.062;2022-09-13T11:05:51;99884.16;;;22.96;53.27
39341;BME280;25059;52.132;21.062;2022-09-13T11:26:56;99857.06;;;23.34;49.11
39341;BME280;25059;52.132;21.062;2022-09-13T11:55:37;99816.03;;;22.61;55.12
39341;BME280;25059;52.132;21.062;2022-09-13T11:58:31;99812.38;;;22.35;55.60
39341;BME280;25059;52.132;21.062;2022-09-13T12:01:28;99809.63;;;22.44;56.30
39341;BME280;25059;52.132;21.062;2022-09-13T12:05:08;99802.63;;;22.88;55.65
39341;BME280;25059;52.132;21.062;2022-09-13T12:11:21;99794.75;;;22.60;54.51
39341;BME280;25059;52.132;21.062;2022-09-13T12:18:05;99790.94;;;22.35;55.66
39341;BME280;25059;52.132;21.062;2022-09-13T12:33:42;99755.44;;;21.96;61.10
39341;BME280;25059;52.132;21.062;2022-09-13T12:36:58;99751.38;;;21.82;62.79
39341;BME280;25059;52.132;21.062;2022-09-13T12:47:15;99752.44;;;20.55;72.11
39341;BME280;25059;52.132;21.062;2022-09-13T12:57:28;99754.16;;;20.16;82.99
39341;BME280;25059;52.132;21.062;2022-09-13T13:00:31;99745.03;;;19.88;87.04
39341;BME280;25059;52.132;21.062;2022-09-13T13:03:18;99733.78;;;20.15;86.22
39341;BME280;25059;52.132;21.062;2022-09-13T13:09:26;99737.69;;;20.51;88.44
39341;BME280;25059;52.132;21.062;2022-09-13T13:12:36;99737.69;;;20.51;88.42
39341;BME280;25059;52.132;21.062;2022-09-13T13:27:09;99716.69;;;19.87;97.47
39341;BME280;25059;52.132;21.062;2022-09-13T13:30:52;99702.25;;;19.99;98.56
39341;BME280;25059;52.132;21.062;2022-09-13T13:33:48;99698.13;;;19.86;97.81
39341;BME280;25059;52.132;21.062;2022-09-13T13:40:18;99687.41;;;20.16;100.00
39341;BME280;25059;52.132;21.062;2022-09-13T13:50:21;99694.09;;;20.51;98.35
39341;BME280;25059;52.132;21.062;2022-09-13T13:53:35;99684.97;;;20.44;97.76
39341;BME280;25059;52.132;21.062;2022-09-13T13:56:26;99686.53;;;20.06;100.00
39341;BME280;25059;52.132;21.062;2022-09-13T13:59:15;99682.72;;;19.99;98.19
39341;BME280;25059;52.132;21.062;2022-09-13T14:02:04;99685.06;;;19.83;100.00
39341;BME280;25059;52.132;21.062;2022-09-13T14:05:02;99678.22;;;19.90;100.00
39341;BME280;25059;52.132;21.062;2022-09-13T14:17:34;99687.75;;;19.31;100.00
39341;BME280;25059;52.132;21.062;2022-09-13T14:20:27;99676.22;;;19.31;100.00
39341;BME280;25059;52.132;21.062;2022-09-13T14:23:17;99671.34;;;19.36;100.00
39341;BME280;25059;52.132;21.062;2022-09-13T14:26:03;99671.22;;;19.38;100.00
39341;BME280;25059;52.132;21.062;2022-09-13T14:28:48;99651.97;;;19.34;100.00
39341;BME280;25059;52.132;21.062;2022-09-13T14:31:34;99653.84;;;19.43;100.00
39341;BME280;25059;52.132;21.062;2022-09-13T14:34:26;99656.38;;;19.45;100.00
39341;BME280;25059;52.132;21.062;2022-09-13T14:37:22;99646.03;;;19.51;100.00
39341;BME280;25059;52.132;21.062;2022-09-13T14:40:16;99641.31;;;19.34;100.00
39341;BME280;25059;52.132;21.062;2022-09-13T14:43:13;99639.78;;;19.11;100.00
39341;BME280;25059;52.132;21.062;2022-09-13T14:46:00;99642.06;;;18.94;100.00
39341;BME280;25059;52.132;21.062;2022-09-13T14:48:53;99629.84;;;18.92;100.00
39341;BME280;25059;52.132;21.062;2022-09-13T14:51:45;99624.19;;;18.85;100.00
39341;BME280;25059;52.132;21.062;2022-09-13T14:57:59;99623.81;;;18.90;100.00
39341;BME280;25059;52.132;21.062;2022-09-13T15:00:51;99628.28;;;18.89;100.00
39341;BME280;25059;52.132;21.062;2022-09-13T15:03:42;99630.38;;;18.86;100.00
39341;BME280;25059;52.132;21.062;2022-09-13T15:06:31;99629.84;;;18.71;100.00
39341;BME280;25059;52.132;21.062;2022-09-13T15:09:26;99625.28;;;18.62;100.00
39341;BME280;25059;52.132;21.062;2022-09-13T15:12:25;99626.75;;;18.55;100.00
39341;BME280;25059;52.132;21.062;2022-09-13T15:21:04;99619.56;;;18.34;100.00
39341;BME280;25059;52.132;21.062;2022-09-13T15:23:50;99614.03;;;18.26;100.00
39341;BME280;25059;52.132;21.062;2022-09-13T15:26:35;99610.19;;;18.19;100.00
39341;BME280;25059;52.132;21.062;2022-09-13T15:29:19;99608.88;;;18.14;100.00
39341;BME280;25059;52.132;21.062;2022-09-13T15:32:04;99611.06;;;18.08;100.00
39341;BME280;25059;52.132;21.062;2022-09-13T15:34:50;99614.97;;;18.04;100.00
39341;BME280;25059;52.132;21.062;2022-09-13T15:37:36;99615.56;;;18.08;100.00
39341;BME280;25059;52.132;21.062;2022-09-13T15:40:24;99614.97;;;18.04;100.00
39341;BME280;25059;52.132;21.062;2022-09-13T15:43:09;99604.56;;;18.01;100.00
39341;BME280;25059;52.132;21.062;2022-09-13T15:45:55;99611.59;;;18.02;100.00
39341;BME280;25059;52.132;21.062;2022-09-13T15:48:45;99610.38;;;17.95;100.00
39341;BME280;25059;52.132;21.062;2022-09-13T15:51:33;99609.06;;;17.90;100.00
39341;BME280;25059;52.132;21.062;2022-09-13T15:54:19;99600.41;;;17.77;100.00
39341;BME280;25059;52.132;21.062;2022-09-13T15:57:09;99606.78;;;17.63;100.00
39341;BME280;25059;52.132;21.062;2022-09-13T15:59:57;99595.94;;;17.55;100.00
39341;BME280;25059;52.132;21.062;2022-09-13T16:02:41;99594.00;;;17.46;100.00
39341;BME280;25059;52.132;21.062;2022-09-13T16:05:26;99591.94;;;17.38;100.00
39341;BME280;25059;52.132;21.062;2022-09-13T16:08:10;99590.50;;;17.34;100.00
39341;BME280;25059;52.132;21.062;2022-09-13T16:10:56;99588.09;;;17.31;100.00
39341;BME280;25059;52.132;21.062;2022-09-13T16:13:41;99583.88;;;17.28;100.00
39341;BME280;25059;52.132;21.062;2022-09-13T16:16:25;99586.63;;;17.16;100.00
39341;BME280;25059;52.132;21.062;2022-09-13T16:19:18;99576.97;;;17.03;100.00
39341;BME280;25059;52.132;21.062;2022-09-13T16:22:04;99576.47;;;16.98;100.00
39341;BME280;25059;52.132;21.062;2022-09-13T16:24:48;99569.00;;;16.92;100.00
39341;BME280;25059;52.132;21.062;2022-09-13T16:27:33;99565.47;;;16.81;100.00
39341;BME280;25059;52.132;21.062;2022-09-13T16:30:18;99563.91;;;16.78;100.00
39341;BME280;25059;52.132;21.062;2022-09-13T16:33:03;99560.38;;;16.66;100.00
39341;BME280;25059;52.132;21.062;2022-09-13T16:35:48;99555.63;;;16.59;100.00
39341;BME280;25059;52.132;21.062;2022-09-13T16:38:32;99561.19;;;16.56;100.00
39341;BME280;25059;52.132;21.062;2022-09-13T16:41:19;99555.88;;;16.56;100.00
39341;BME280;25059;52.132;21.062;2022-09-13T16:44:03;99552.38;;;16.55;100.00
39341;BME280;25059;52.132;21.062;2022-09-13T16:46:48;99550.91;;;16.51;100.00
39341;BME280;25059;52.132;21.062;2022-09-13T16:49:33;99549.06;;;16.40;100.00
39341;BME280;25059;52.132;21.062;2022-09-13T16:52:17;99549.66;;;16.33;100.00
39341;BME280;25059;52.132;21.062;2022-09-13T16:55:04;99551.31;;;16.23;100.00
39341;BME280;25059;52.132;21.062;2022-09-13T16:57:48;99546.56;;;16.15;100.00
39341;BME280;25059;52.132;21.062;2022-09-13T17:00:35;99554.38;;;16.05;100.00
39341;BME280;25059;52.132;21.062;2022-09-13T17:03:20;99546.25;;;15.96;100.00
39341;BME280;25059;52.132;21.062;2022-09-13T17:06:07;99546.47;;;15.93;100.00
39341;BME280;25059;52.132;21.062;2022-09-13T17:08:56;99544.41;;;15.85;100.00
39341;BME280;25059;52.132;21.062;2022-09-13T17:11:44;99545.34;;;15.84;100.00
39341;BME280;25059;52.132;21.062;2022-09-13T17:14:28;99545.69;;;15.79;100.00
39341;BME280;25059;52.132;21.062;2022-09-13T17:17:14;99546.75;;;15.77;100.00
39341;BME280;25059;52.132;21.062;2022-09-13T17:20:03;99541.69;;;15.74;100.00
39341;BME280;25059;52.132;21.062;2022-09-13T17:22:49;99545.84;;;15.65;100.00
39341;BME280;25059;52.132;21.062;2022-09-13T17:25:33;99538.97;;;15.63;100.00
39341;BME280;25059;52.132;21.062;2022-09-13T17:28:18;99537.50;;;15.59;100.00
39341;BME280;25059;52.132;21.062;2022-09-13T17:31:03;99534.31;;;15.54;100.00
39341;BME280;25059;52.132;21.062;2022-09-13T17:33:49;99529.84;;;15.54;100.00
39341;BME280;25059;52.132;21.062;2022-09-13T17:36:33;99529.97;;;15.52;100.00
39341;BME280;25059;52.132;21.062;2022-09-13T17:39:18;99533.78;;;15.48;100.00
39341;BME280;25059;52.132;21.062;2022-09-13T17:42:02;99534.88;;;15.46;100.00
39341;BME280;25059;52.132;21.062;2022-09-13T17:44:47;99530.28;;;15.48;100.00
39341;BME280;25059;52.132;21.062;2022-09-13T17:47:31;99533.56;;;15.51;100.00
39341;BME280;25059;52.132;21.062;2022-09-13T17:50:16;99528.59;;;15.47;100.00
39341;BME280;25059;52.132;21.062;2022-09-13T17:53:02;99529.34;;;15.49;100.00
39341;BME280;25059;52.132;21.062;2022-09-13T17:55:49;99531.16;;;15.48;100.00
39341;BME280;25059;52.132;21.062;2022-09-13T17:58:33;99531.16;;;15.48;100.00
39341;BME280;25059;52.132;21.062;2022-09-13T18:04:43;99528.09;;;15.42;100.00
39341;BME280;25059;52.132;21.062;2022-09-13T18:07:28;99530.84;;;15.40;100.00
39341;BME280;25059;52.132;21.062;2022-09-13T18:10:13;99539.03;;;15.37;100.00
39341;BME280;25059;52.132;21.062;2022-09-13T18:12:58;99538.50;;;15.32;100.00
39341;BME280;25059;52.132;21.062;2022-09-13T18:15:43;99536.16;;;15.40;100.00
39341;BME280;25059;52.132;21.062;2022-09-13T18:18:27;99535.94;;;15.43;100.00
39341;BME280;25059;52.132;21.062;2022-09-13T18:21:12;99535.81;;;15.45;100.00
39341;BME280;25059;52.132;21.062;2022-09-13T18:24:00;99532.31;;;15.44;100.00
39341;BME280;25059;52.132;21.062;2022-09-13T18:26:45;99522.06;;;15.40;100.00
39341;BME280;25059;52.132;21.062;2022-09-13T18:29:32;99525.03;;;15.35;100.00
39341;BME280;25059;52.132;21.062;2022-09-13T18:32:16;99518.69;;;15.38;100.00
39341;BME280;25059;52.132;21.062;2022-09-13T18:35:01;99515.69;;;15.42;100.00
39341;BME280;25059;52.132;21.062;2022-09-13T18:37:46;99516.53;;;15.43;100.00
39341;BME280;25059;52.132;21.062;2022-09-13T18:40:31;99519.06;;;15.44;100.00
39341;BME280;25059;52.132;21.062;2022-09-13T18:43:15;99512.19;;;15.42;100.00
39341;BME280;25059;52.132;21.062;2022-09-13T18:46:04;99499.56;;;15.45;100.00
39341;BME280;25059;52.132;21.062;2022-09-13T18:48:51;99498.00;;;15.43;100.00
39341;BME280;25059;52.132;21.062;2022-09-13T18:51:40;99488.13;;;15.45;100.00
39341;BME280;25059;52.132;21.062;2022-09-13T18:54:24;99484.63;;;15.44;100.00
39341;BME280;25059;52.132;21.062;2022-09-13T18:57:09;99477.66;;;15.43;100.00
39341;BME280;25059;52.132;21.062;2022-09-13T18:59:54;99481.25;;;15.42;100.00
39341;BME280;25059;52.132;21.062;2022-09-13T19:02:39;99484.03;;;15.41;100.00
39341;BME280;25059;52.132;21.062;2022-09-13T19:08:59;99474.16;;;15.43;100.00
39341;BME280;25059;52.132;21.062;2022-09-13T19:11:45;99468.13;;;15.41;100.00
39341;BME280;25059;52.132;21.062;2022-09-13T19:14:30;99468.47;;;15.36;100.00
39341;BME280;25059;52.132;21.062;2022-09-13T19:17:16;99472.06;;;15.35;100.00
39341;BME280;25059;52.132;21.062;2022-09-13T19:20:01;99461.81;;;15.31;100.00
39341;BME280;25059;52.132;21.062;2022-09-13T19:22:45;99460.13;;;15.30;100.00
39341;BME280;25059;52.132;21.062;2022-09-13T19:25:33;99461.06;;;15.29;100.00
39341;BME280;25059;52.132;21.062;2022-09-13T19:28:18;99460.84;;;15.32;100.00
39341;BME280;25059;52.132;21.062;2022-09-13T19:31:05;99453.75;;;15.32;100.00
39341;BME280;25059;52.132;21.062;2022-09-13T19:33:52;99454.94;;;15.28;100.00
39341;BME280;25059;52.132;21.062;2022-09-13T19:36:38;99448.69;;;15.29;100.00